Time;durP1;ratioP1;P1;durP2;ratioP2;P2;SDS_P1;SDS_P2;PMS_P1;PMS_P2;Temp;Humidity;BMP_temperature;BMP_pressure;BME280_temperature;BME280_humidity;BME280_pressure;Samples;Min_cycle;Max_cycle;Signal;HPM_P1;HPM_P2
2022/07/10 00:02:00;;;;;;;3.70;0.73;;;;;;;18.12;53.89;100393.22;5035404;28;20068;-63
2022/07/10 00:04:25;;;;;;;3.38;0.80;;;;;;;18.14;53.76;100393.13;5052923;28;20024;-64
2022/07/10 00:06:51;;;;;;;2.78;0.98;;;;;;;18.07;53.95;100389.94;5035329;28;20036;-64
2022/07/10 00:09:16;;;;;;;1.38;0.60;;;;;;;18.02;54.23;100391.97;5053188;28;20377;-63
2022/07/10 00:11:42;;;;;;;2.38;0.90;;;;;;;18.08;54.01;100390.81;5053624;28;20033;-63
2022/07/10 00:14:08;;;;;;;2.38;0.60;;;;;;;18.04;54.07;100383.94;5034996;28;20033;-64
2022/07/10 00:16:33;;;;;;;5.95;0.75;;;;;;;18.00;54.13;100393.88;5054467;28;20029;-63
2022/07/10 00:18:59;;;;;;;2.97;0.68;;;;;;;17.96;54.16;100397.63;5073062;28;20027;-63
2022/07/10 00:21:24;;;;;;;3.00;0.70;;;;;;;17.95;54.34;100391.47;5073059;28;20025;-63
2022/07/10 00:23:52;;;;;;;3.38;0.70;;;;;;;17.75;55.35;100383.63;5072898;28;20039;-63
2022/07/10 00:26:18;;;;;;;4.50;1.02;;;;;;;17.75;55.08;100383.63;5072311;28;20027;-64
2022/07/10 00:28:43;;;;;;;3.67;0.90;;;;;;;17.76;55.04;100385.38;5052852;28;20033;-63
2022/07/10 00:31:10;;;;;;;6.35;0.88;;;;;;;17.77;54.87;100386.22;5034898;28;20029;-64
2022/07/10 00:33:37;;;;;;;3.58;0.88;;;;;;;17.76;55.00;100377.41;5061876;28;20054;-63
2022/07/10 00:36:03;;;;;;;4.45;0.70;;;;;;;17.74;55.15;100376.56;5049550;28;20044;-63
2022/07/10 00:38:29;;;;;;;3.17;0.75;;;;;;;17.71;55.02;100376.72;5068523;28;20357;-63
2022/07/10 00:40:54;;;;;;;5.18;1.02;;;;;;;17.58;55.54;100365.88;5039324;28;20059;-63
2022/07/10 00:43:20;;;;;;;2.33;0.75;;;;;;;17.65;55.32;100356.66;5049740;28;20040;-63
2022/07/10 00:45:45;;;;;;;2.03;0.60;;;;;;;17.41;55.92;100372.03;5057012;28;20033;-63
2022/07/10 00:48:11;;;;;;;2.47;0.57;;;;;;;17.32;56.15;100359.22;5059643;28;20028;-64
2022/07/10 00:50:36;;;;;;;3.03;0.60;;;;;;;17.43;56.10;100356.00;5058932;28;20032;-63
2022/07/10 00:53:05;;;;;;;2.97;0.80;;;;;;;17.63;55.30;100344.38;5038546;28;20083;-64
2022/07/10 00:55:32;;;;;;;3.60;0.80;;;;;;;17.57;55.59;100348.22;5063771;28;20132;-63
2022/07/10 00:57:58;;;;;;;3.55;0.68;;;;;;;17.57;55.44;100342.91;5036284;28;20032;-63
2022/07/10 01:00:25;;;;;;;2.58;0.90;;;;;;;17.60;55.37;100336.59;5063096;28;20388;-63
2022/07/10 01:02:52;;;;;;;1.45;0.60;;;;;;;17.60;55.42;100334.78;5055387;28;20438;-63
2022/07/10 01:05:17;;;;;;;1.15;0.55;;;;;;;17.65;55.42;100334.53;5075040;28;20067;-63
2022/07/10 01:07:42;;;;;;;1.92;0.60;;;;;;;17.74;55.10;100334.06;5066146;28;20111;-64
2022/07/10 01:10:08;;;;;;;3.83;1.00;;;;;;;17.70;55.17;100328.03;5058752;28;20024;-63
2022/07/10 01:12:34;;;;;;;3.15;0.70;;;;;;;17.70;55.13;100337.81;5067681;28;20452;-63
2022/07/10 01:15:00;;;;;;;3.40;0.90;;;;;;;17.69;55.17;100331.63;5055733;28;20037;-63
2022/07/10 01:17:28;;;;;;;3.72;0.70;;;;;;;17.73;55.19;100330.53;5067963;28;20043;-63
2022/07/10 01:19:54;;;;;;;3.17;0.52;;;;;;;17.79;55.00;100329.38;5056713;28;20032;-63
2022/07/10 01:22:19;;;;;;;3.97;0.82;;;;;;;17.84;54.78;100330.03;5039197;28;20614;-63
2022/07/10 01:24:45;;;;;;;2.55;0.80;;;;;;;17.77;55.12;100330.41;5063545;28;20036;-63
2022/07/10 01:27:10;;;;;;;2.30;0.70;;;;;;;17.81;55.05;100330.19;5064783;28;20025;-63
2022/07/10 01:29:36;;;;;;;4.55;0.90;;;;;;;17.81;55.07;100324.84;5045627;28;20476;-63
2022/07/10 01:32:02;;;;;;;3.75;0.60;;;;;;;17.89;54.91;100333.28;5037517;28;20064;-63
2022/07/10 01:34:28;;;;;;;3.20;0.50;;;;;;;17.98;54.56;100332.78;5055451;28;20053;-64
2022/07/10 01:36:54;;;;;;;2.97;0.70;;;;;;;18.08;54.57;100337.63;5055444;28;20093;-64
2022/07/10 01:39:19;;;;;;;1.77;0.50;;;;;;;18.18;54.13;100338.84;5061405;28;20082;-63
2022/07/10 01:41:45;;;;;;;2.25;0.65;;;;;;;18.24;53.96;100330.56;5073350;28;20028;-63
2022/07/10 01:44:10;;;;;;;4.55;1.20;;;;;;;18.24;54.16;100338.53;5070936;28;20040;-64
2022/07/10 01:46:42;;;;;;;2.58;0.60;;;;;;;18.21;54.73;100328.06;5060863;28;20033;-63
2022/07/10 01:49:08;;;;;;;4.55;0.57;;;;;;;18.38;53.77;100327.13;5060244;28;20025;-63
2022/07/10 01:51:33;;;;;;;4.25;1.10;;;;;;;18.32;54.06;100325.69;5047626;28;20036;-63
2022/07/10 01:53:59;;;;;;;3.65;0.73;;;;;;;18.42;53.88;100320.69;5056395;28;20025;-63
2022/07/10 01:56:24;;;;;;;4.60;0.75;;;;;;;18.39;53.92;100319.09;5064423;28;20044;-63
2022/07/10 01:58:50;;;;;;;2.20;0.65;;;;;;;18.42;53.90;100316.22;5073696;28;20040;-63
2022/07/10 02:01:15;;;;;;;3.00;0.90;;;;;;;18.48;53.87;100319.53;5038397;28;20037;-63
2022/07/10 02:06:25;;;;;;;3.47;0.80;;;;;;;18.51;53.71;100311.34;5073079;28;20081;-64
2022/07/10 02:08:51;;;;;;;4.82;0.95;;;;;;;18.62;53.58;100308.94;5060605;28;20020;-63
2022/07/10 02:11:16;;;;;;;3.60;0.70;;;;;;;18.69;53.38;100307.66;5073612;28;20107;-63
2022/07/10 02:13:42;;;;;;;1.23;0.50;;;;;;;18.75;53.19;100307.38;5073142;28;20029;-64
2022/07/10 02:16:07;;;;;;;4.38;0.75;;;;;;;18.73;53.29;100308.38;5071814;28;20078;-64
2022/07/10 02:18:33;;;;;;;5.88;0.70;;;;;;;18.72;53.44;100302.22;5065316;28;20046;-64
2022/07/10 02:20:58;;;;;;;3.60;0.60;;;;;;;18.74;53.24;100305.63;5073727;28;20044;-64
2022/07/10 02:23:23;;;;;;;6.47;1.00;;;;;;;18.70;53.50;100301.41;5061109;28;20032;-63
2022/07/10 02:25:49;;;;;;;2.70;0.70;;;;;;;18.68;53.75;100300.63;5054965;28;20083;-63
2022/07/10 02:28:15;;;;;;;2.60;0.77;;;;;;;18.39;54.49;100300.47;5065149;28;20139;-64
2022/07/10 02:30:42;;;;;;;3.45;0.80;;;;;;;18.22;55.13;100300.50;5073629;28;20047;-63
2022/07/10 02:33:07;;;;;;;3.60;0.80;;;;;;;18.12;55.25;100299.31;5058653;28;20111;-64
2022/07/10 02:35:32;;;;;;;2.40;0.63;;;;;;;18.14;55.17;100294.75;5074141;28;20115;-63
2022/07/10 02:37:58;;;;;;;6.53;0.93;;;;;;;18.10;55.50;100298.53;5062383;28;20028;-63
2022/07/10 02:40:23;;;;;;;4.68;0.90;;;;;;;18.09;55.35;100295.00;5094182;28;20150;-63
2022/07/10 02:42:48;;;;;;;4.80;0.82;;;;;;;18.07;55.39;100290.69;5068336;28;20024;-63
2022/07/10 02:45:14;;;;;;;2.97;0.70;;;;;;;18.13;55.08;100290.38;5042500;28;20535;-63
2022/07/10 02:47:39;;;;;;;4.05;0.85;;;;;;;18.13;55.44;100282.41;5066162;28;20029;-63
2022/07/10 02:50:05;;;;;;;3.50;0.70;;;;;;;18.21;55.42;100290.81;5068686;28;20082;-64
2022/07/10 02:52:31;;;;;;;4.55;0.60;;;;;;;18.10;55.69;100282.56;5058021;28;20040;-63
2022/07/10 02:54:57;;;;;;;3.22;0.63;;;;;;;18.31;55.03;100278.75;5055828;28;20056;-63
2022/07/10 02:57:23;;;;;;;2.97;0.63;;;;;;;18.47;54.66;100284.06;5053632;28;20379;-63
2022/07/10 02:59:48;;;;;;;4.13;0.80;;;;;;;18.41;54.96;100285.25;5072521;28;20379;-63
2022/07/10 03:02:15;;;;;;;2.75;0.65;;;;;;;18.63;54.02;100281.38;5072013;28;20036;-63
2022/07/10 03:04:40;;;;;;;4.32;0.65;;;;;;;18.63;54.15;100278.72;5053562;28;20037;-64
2022/07/10 03:07:06;;;;;;;4.20;1.00;;;;;;;18.65;54.12;100279.50;5068767;28;20377;-63
2022/07/10 03:09:31;;;;;;;3.47;0.80;;;;;;;18.34;55.05;100275.03;5050993;28;20469;-63
2022/07/10 03:11:57;;;;;;;2.25;0.60;;;;;;;18.46;54.83;100282.34;5055545;28;20028;-64
2022/07/10 03:14:22;;;;;;;2.67;0.57;;;;;;;18.33;55.19;100289.28;5038162;28;20120;-62
2022/07/10 03:16:47;;;;;;;2.90;0.68;;;;;;;18.19;55.78;100285.59;5072479;28;20032;-64
2022/07/10 03:19:13;;;;;;;4.13;0.60;;;;;;;18.47;54.81;100278.72;5061812;28;20032;-63
2022/07/10 03:21:38;;;;;;;5.03;1.15;;;;;;;18.33;55.56;100273.34;5035343;28;20037;-64
2022/07/10 03:24:04;;;;;;;5.00;0.75;;;;;;;18.34;55.51;100275.91;5053911;28;20039;-64
2022/07/10 03:26:30;;;;;;;6.22;0.90;;;;;;;18.02;56.72;100276.81;5053673;28;20483;-63
2022/07/10 03:28:56;;;;;;;2.17;0.77;;;;;;;18.01;56.95;100269.78;5036502;28;20033;-63
2022/07/10 03:31:21;;;;;;;3.25;0.60;;;;;;;18.19;56.06;100277.63;5053499;28;20032;-63
2022/07/10 03:33:47;;;;;;;5.15;0.90;;;;;;;18.08;56.67;100279.16;5035224;28;20426;-63
2022/07/10 03:36:16;;;;;;;2.97;0.73;;;;;;;18.14;56.52;100274.34;5065923;28;20364;-63
2022/07/10 03:38:41;;;;;;;5.35;1.17;;;;;;;18.00;57.35;100271.59;5054868;28;20056;-63
2022/07/10 03:41:06;;;;;;;6.97;1.10;;;;;;;17.85;57.49;100278.56;5053441;28;20100;-63
2022/07/10 03:43:32;;;;;;;5.57;1.00;;;;;;;18.07;56.90;100272.94;5047065;28;20410;-63
2022/07/10 03:45:58;;;;;;;3.17;0.60;;;;;;;17.90;57.39;100275.66;5034590;28;20029;-63
2022/07/10 03:48:23;;;;;;;5.25;0.80;;;;;;;18.09;56.96;100271.09;5052744;28;20037;-63
2022/07/10 03:50:51;;;;;;;3.50;0.75;;;;;;;18.26;56.34;100272.81;5056789;28;20033;-63
2022/07/10 03:53:16;;;;;;;3.67;1.08;;;;;;;18.05;57.03;100263.34;5061528;28;20036;-63
2022/07/10 03:55:42;;;;;;;4.43;0.85;;;;;;;18.19;56.56;100271.41;5053314;28;20468;-63
2022/07/10 03:58:07;;;;;;;6.10;1.15;;;;;;;18.14;56.89;100258.38;5036144;28;20082;-63
2022/07/10 04:00:33;;;;;;;4.50;0.70;;;;;;;18.19;56.64;100261.66;5055447;28;20032;-63
2022/07/10 04:03:03;;;;;;;1.10;0.50;;;;;;;18.45;55.99;100254.88;5065896;28;20105;-64
2022/07/10 04:05:29;;;;;;;3.33;0.70;;;;;;;18.49;55.83;100252.06;5054326;28;20025;-63
2022/07/10 04:07:59;;;;;;;4.55;0.80;;;;;;;18.33;56.44;100252.06;5043177;28;20486;-63
2022/07/10 04:10:26;;;;;;;3.13;0.85;;;;;;;18.59;55.57;100255.91;5058928;28;20029;-63
2022/07/10 04:12:51;;;;;;;3.88;0.80;;;;;;;18.48;55.89;100261.00;5046207;28;20067;-63
2022/07/10 04:15:17;;;;;;;2.70;0.63;;;;;;;18.53;55.71;100264.25;5073958;28;20063;-63
2022/07/10 04:17:43;;;;;;;4.10;0.88;;;;;;;18.55;55.72;100268.53;5057705;28;20079;-63
2022/07/10 04:20:09;;;;;;;2.78;0.70;;;;;;;18.47;55.99;100268.09;5053164;28;20429;-63
2022/07/10 04:22:35;;;;;;;4.45;0.98;;;;;;;18.42;56.25;100262.19;5057791;28;20025;-63
2022/07/10 04:25:00;;;;;;;4.03;0.70;;;;;;;18.75;55.12;100262.13;5061586;28;20052;-63
2022/07/10 04:27:26;;;;;;;2.45;0.70;;;;;;;18.88;54.93;100260.47;5040108;28;20111;-64
2022/07/10 04:29:52;;;;;;;4.90;0.70;;;;;;;18.63;55.78;100260.97;5076859;28;20041;-63
2022/07/10 04:32:17;;;;;;;2.00;0.40;;;;;;;18.94;54.91;100261.91;5070441;28;20100;-63
2022/07/10 04:34:43;;;;;;;5.38;0.60;;;;;;;19.13;54.37;100256.34;5062294;28;20099;-63
2022/07/10 04:37:09;;;;;;;1.38;0.50;;;;;;;19.22;54.17;100255.81;5052724;28;20017;-63
2022/07/10 04:39:38;;;;;;;5.50;0.90;;;;;;;18.81;55.64;100260.91;5048392;28;20063;-63
2022/07/10 04:42:08;;;;;;;3.35;0.68;;;;;;;19.07;54.99;100254.03;5040890;28;20035;-64
2022/07/10 04:44:34;;;;;;;3.15;0.80;;;;;;;19.29;54.17;100246.50;5056615;28;20492;-63
2022/07/10 04:47:00;;;;;;;4.05;0.80;;;;;;;19.17;54.62;100249.91;5063087;28;20024;-64
2022/07/10 04:49:26;;;;;;;6.72;1.15;;;;;;;19.41;53.80;100248.44;5076277;28;20055;-63
2022/07/10 04:51:51;;;;;;;3.03;0.77;;;;;;;19.28;54.49;100246.59;5066360;28;20032;-63
2022/07/10 04:54:17;;;;;;;4.60;0.77;;;;;;;19.59;53.65;100250.91;5056964;28;20144;-63
2022/07/10 04:56:43;;;;;;;4.85;0.95;;;;;;;19.68;53.37;100247.75;5061718;28;20041;-63
2022/07/10 04:59:09;;;;;;;5.75;1.23;;;;;;;19.64;53.73;100239.06;5069964;28;20029;-63
2022/07/10 05:01:35;;;;;;;3.40;0.90;;;;;;;19.82;53.55;100241.53;5058664;28;20098;-63
2022/07/10 05:04:00;;;;;;;8.02;1.20;;;;;;;19.58;53.90;100250.06;5057363;28;20426;-64
2022/07/10 05:06:25;;;;;;;4.05;0.80;;;;;;;19.61;53.80;100243.69;5073875;28;20037;-63
2022/07/10 05:08:51;;;;;;;3.53;0.80;;;;;;;19.68;53.84;100245.06;5019443;28;20459;-63
2022/07/10 05:11:16;;;;;;;3.25;0.77;;;;;;;19.67;54.20;100251.38;5076093;28;20460;-63
2022/07/10 05:13:46;;;;;;;7.55;0.70;;;;;;;19.72;53.69;100245.75;5060244;28;20312;-64
2022/07/10 05:16:13;;;;;;;5.10;1.05;;;;;;;19.70;53.92;100243.16;5057637;28;20052;-63
2022/07/10 05:18:39;;;;;;;4.93;0.90;;;;;;;19.62;54.30;100245.44;5072136;28;20094;-63
2022/07/10 05:21:05;;;;;;;4.25;0.90;;;;;;;19.86;53.91;100238.59;5037935;28;20029;-64
2022/07/10 05:23:31;;;;;;;2.60;0.80;;;;;;;19.72;53.09;100251.94;5037352;28;20128;-64
2022/07/10 05:25:56;;;;;;;2.83;0.60;;;;;;;19.78;53.19;100238.22;5037851;28;20448;-64
2022/07/10 05:28:21;;;;;;;18.52;2.60;;;;;;;19.44;53.83;100248.25;5055207;28;20040;-63
2022/07/10 05:30:48;;;;;;;4.45;1.10;;;;;;;19.51;53.79;100235.44;5021170;28;20041;-64
2022/07/10 05:33:14;;;;;;;4.30;0.60;;;;;;;19.61;53.09;100243.69;5060433;28;20036;-64
2022/07/10 05:35:40;;;;;;;5.88;0.80;;;;;;;19.63;53.03;100233.84;5057721;28;20120;-64
2022/07/10 05:38:05;;;;;;;2.67;0.60;;;;;;;19.84;52.35;100248.50;5083562;28;20115;-64
2022/07/10 05:40:31;;;;;;;3.53;0.70;;;;;;;19.79;52.41;100237.28;5057361;28;20135;-64
2022/07/10 05:42:57;;;;;;;3.90;0.70;;;;;;;19.91;52.29;100241.84;5049603;28;20025;-64
2022/07/10 05:45:22;;;;;;;4.30;0.70;;;;;;;19.78;52.62;100238.22;5054407;28;21876;-64
2022/07/10 05:47:48;;;;;;;2.80;0.57;;;;;;;19.80;52.78;100231.00;5036885;28;20100;-64
2022/07/10 05:50:13;;;;;;;2.40;0.52;;;;;;;19.44;53.87;100240.25;5072738;28;20059;-65
2022/07/10 05:52:39;;;;;;;4.22;0.73;;;;;;;19.27;54.14;100243.09;5058723;28;20353;-64
2022/07/10 05:55:05;;;;;;;3.35;0.75;;;;;;;19.63;53.26;100245.38;5037271;28;20049;-64
2022/07/10 05:57:31;;;;;;;5.45;0.90;;;;;;;19.74;53.37;100252.69;5057597;28;20112;-64
2022/07/10 06:00:00;;;;;;;3.05;0.55;;;;;;;19.88;53.16;100250.03;5055650;28;20222;-64
2022/07/10 06:02:26;;;;;;;2.38;0.80;;;;;;;19.87;53.20;100253.66;5054679;28;20037;-64
2022/07/10 06:04:51;;;;;;;3.65;0.73;;;;;;;19.80;53.43;100260.31;5037561;28;20040;-64
2022/07/10 06:07:17;;;;;;;4.25;0.65;;;;;;;19.82;53.57;100262.88;5063367;28;20032;-64
2022/07/10 06:09:42;;;;;;;4.75;0.80;;;;;;;19.76;53.65;100256.13;5072139;28;20028;-64
2022/07/10 06:12:08;;;;;;;3.25;1.05;;;;;;;19.54;54.63;100263.66;5061432;28;20029;-64
2022/07/10 06:14:34;;;;;;;4.00;0.70;;;;;;;19.86;53.58;100256.41;5039701;28;20124;-64
2022/07/10 06:17:00;;;;;;;4.97;1.02;;;;;;;19.63;54.74;100258.69;5073624;28;20112;-64
2022/07/10 06:19:25;;;;;;;3.17;0.80;;;;;;;19.21;55.92;100256.75;5072905;28;20115;-64
2022/07/10 06:22:30;;;;;;;1.98;0.68;;;;;;;19.31;56.06;100257.94;5042172;28;20036;-64
2022/07/10 06:24:36;;;;;;;4.13;0.68;;;;;;;19.09;56.47;100260.16;5055518;28;20472;-64
2022/07/10 06:27:01;;;;;;;3.00;1.00;;;;;;;18.74;57.63;100273.69;5059834;28;20044;-64
2022/07/10 06:29:26;;;;;;;4.35;0.93;;;;;;;18.63;57.98;100271.63;5055895;28;20108;-64
2022/07/10 06:31:52;;;;;;;3.30;0.98;;;;;;;18.78;57.86;100261.91;5021550;28;20033;-65
2022/07/10 06:34:17;;;;;;;4.20;1.20;;;;;;;18.63;58.32;100281.38;5049978;28;20037;-64
2022/07/10 06:36:43;;;;;;;5.30;1.25;;;;;;;18.90;57.29;100277.19;5054132;28;20056;-64
2022/07/10 06:39:08;;;;;;;5.05;1.00;;;;;;;18.56;58.58;100274.72;5073351;28;20060;-64
2022/07/10 06:41:34;;;;;;;4.20;1.35;;;;;;;18.66;58.39;100271.44;5053949;28;20029;-64
2022/07/10 06:44:00;;;;;;;4.80;1.70;;;;;;;18.50;59.14;100265.25;5035260;28;20047;-64
2022/07/10 06:46:26;;;;;;;4.93;1.35;;;;;;;18.42;60.05;100260.38;5054751;28;20044;-64
2022/07/10 06:48:52;;;;;;;3.42;1.10;;;;;;;18.43;60.28;100270.09;5049085;28;20045;-64
2022/07/10 06:51:18;;;;;;;6.75;1.70;;;;;;;18.33;61.26;100284.84;5035869;28;20033;-63
2022/07/10 06:53:43;;;;;;;4.22;1.27;;;;;;;18.01;62.37;100277.75;5039893;28;20107;-64
2022/07/10 06:56:09;;;;;;;5.43;1.23;;;;;;;18.44;60.95;100271.78;5025527;28;20554;-64
2022/07/10 06:58:34;;;;;;;6.18;1.50;;;;;;;18.59;60.52;100277.19;5044359;28;20036;-64
2022/07/10 07:01:00;;;;;;;6.40;1.65;;;;;;;18.35;61.35;100276.75;5038646;28;20054;-64
2022/07/10 07:03:25;;;;;;;7.07;1.98;;;;;;;18.55;60.58;100273.88;5052311;28;20108;-64
2022/07/10 07:05:51;;;;;;;4.40;1.60;;;;;;;18.86;59.18;100274.78;5048773;28;20345;-64
2022/07/10 07:08:16;;;;;;;6.35;1.75;;;;;;;18.81;59.41;100274.22;5035434;28;20083;-65
2022/07/10 07:10:41;;;;;;;4.95;1.48;;;;;;;18.49;59.33;100268.88;5043602;28;20044;-64
2022/07/10 07:13:09;;;;;;;6.93;1.30;;;;;;;19.07;57.98;100262.03;5045790;28;20036;-64
2022/07/10 07:15:38;;;;;;;2.65;0.95;;;;;;;18.90;58.04;100282.50;5053761;28;20490;-64
2022/07/10 07:18:15;;;;;;;4.47;0.98;;;;;;;18.77;57.78;100270.88;5041255;28;20075;-64
2022/07/10 07:23:27;;;;;;;2.55;1.00;;;;;;;18.76;57.32;100276.28;5052803;28;20164;-64
2022/07/10 07:25:53;;;;;;;5.15;1.15;;;;;;;18.70;57.42;100274.81;5053683;28;20098;-64
2022/07/10 07:28:19;;;;;;;3.42;0.70;;;;;;;18.71;57.08;100284.50;5053455;28;20021;-64
2022/07/10 07:30:47;;;;;;;2.58;0.60;;;;;;;19.09;56.34;100278.78;5053584;28;20040;-64
2022/07/10 07:33:12;;;;;;;2.50;0.70;;;;;;;18.98;56.67;100281.22;5038986;28;20028;-64
2022/07/10 07:35:39;;;;;;;3.15;0.82;;;;;;;19.57;55.08;100280.34;5035558;28;20029;-64
2022/07/10 07:38:05;;;;;;;2.58;0.90;;;;;;;19.44;55.69;100280.22;5067420;28;20040;-64
2022/07/10 07:40:32;;;;;;;1.58;0.70;;;;;;;19.70;55.34;100275.16;5055318;28;20029;-64
2022/07/10 07:42:57;;;;;;;3.25;0.80;;;;;;;19.78;54.79;100266.69;5035154;28;20017;-64
2022/07/10 07:45:24;;;;;;;1.50;0.57;;;;;;;19.90;54.73;100269.44;5048287;28;20060;-64
2022/07/10 07:47:56;;;;;;;2.45;0.75;;;;;;;19.99;54.42;100264.47;5041861;28;20381;-64
2022/07/10 07:50:26;;;;;;;2.83;0.75;;;;;;;19.92;54.83;100258.69;5032670;28;20036;-64
2022/07/10 07:52:52;;;;;;;1.85;0.60;;;;;;;20.22;54.18;100252.38;5045924;28;20040;-64
2022/07/10 07:55:19;;;;;;;3.10;0.77;;;;;;;20.71;53.23;100255.44;5055718;28;20049;-64
2022/07/10 07:57:45;;;;;;;3.58;0.75;;;;;;;20.96;53.27;100256.50;5039966;28;20040;-64
2022/07/10 08:00:12;;;;;;;2.53;0.70;;;;;;;21.39;52.31;100263.34;5056050;28;20159;-65
2022/07/10 08:02:38;;;;;;;4.65;0.60;;;;;;;21.39;51.78;100260.66;5039203;28;20460;-64
2022/07/10 08:05:04;;;;;;;2.33;1.02;;;;;;;21.14;52.20;100256.13;5057192;28;20032;-64
2022/07/10 08:07:37;;;;;;;2.30;0.80;;;;;;;21.08;52.15;100247.66;5057340;28;20511;-64
2022/07/10 08:10:04;;;;;;;3.20;0.68;;;;;;;21.62;51.28;100248.41;5056030;28;20040;-65
2022/07/10 08:12:30;;;;;;;2.95;1.00;;;;;;;21.74;50.77;100260.03;5055489;28;20039;-65
2022/07/10 08:14:55;;;;;;;2.00;0.50;;;;;;;22.09;50.14;100251.34;5039226;28;20025;-64
2022/07/10 08:17:21;;;;;;;2.55;0.80;;;;;;;21.83;50.76;100264.75;5056910;28;20083;-65
2022/07/10 08:19:47;;;;;;;3.60;0.88;;;;;;;21.70;50.78;100250.50;5056539;28;20028;-64
2022/07/10 08:22:12;;;;;;;1.70;0.70;;;;;;;21.79;50.98;100262.41;5055524;28;20036;-65
2022/07/10 08:24:38;;;;;;;5.82;0.65;;;;;;;21.20;52.04;100256.66;5056842;28;20032;-64
2022/07/10 08:27:06;;;;;;;3.90;1.25;;;;;;;21.25;52.32;100266.06;5055577;28;20036;-65
2022/07/10 08:29:31;;;;;;;4.28;1.02;;;;;;;21.48;51.66;100259.19;5038946;28;20084;-64
2022/07/10 08:31:56;;;;;;;3.35;0.80;;;;;;;21.51;51.96;100258.13;5056635;28;20041;-64
2022/07/10 08:34:22;;;;;;;3.05;0.88;;;;;;;21.37;51.75;100267.06;5056313;28;20032;-65
2022/07/10 08:36:47;;;;;;;3.40;0.80;;;;;;;21.55;51.34;100252.44;5056792;28;20052;-64
2022/07/10 08:39:15;;;;;;;3.55;1.00;;;;;;;21.77;51.05;100264.31;5055212;28;20036;-65
2022/07/10 08:41:42;;;;;;;2.63;0.60;;;;;;;21.64;50.90;100267.00;5055818;28;20445;-65
2022/07/10 08:44:08;;;;;;;5.55;0.77;;;;;;;21.85;51.01;100257.47;5035049;28;20037;-65
2022/07/10 08:46:35;;;;;;;3.33;0.80;;;;;;;22.46;49.67;100248.69;5036494;28;20029;-65
2022/07/10 08:49:08;;;;;;;2.42;0.88;;;;;;;22.31;50.05;100246.19;5035210;28;20108;-64
2022/07/10 08:51:44;;;;;;;2.35;0.70;;;;;;;22.20;49.45;100254.13;5019470;28;20032;-64
2022/07/10 08:54:14;;;;;;;2.35;0.63;;;;;;;22.45;48.75;100252.34;5035161;28;20033;-65
2022/07/10 08:56:40;;;;;;;2.80;0.98;;;;;;;22.82;48.50;100253.16;5054913;28;20045;-65
2022/07/10 08:59:07;;;;;;;3.33;0.80;;;;;;;23.38;47.62;100255.22;5056268;28;20021;-65
2022/07/10 09:01:33;;;;;;;2.85;0.65;;;;;;;23.31;47.66;100268.25;5055505;28;20025;-65
2022/07/10 09:03:59;;;;;;;2.53;0.80;;;;;;;23.20;47.67;100263.69;5058137;28;20028;-65
2022/07/10 09:06:27;;;;;;;4.97;1.00;;;;;;;22.80;48.10;100271.16;5075717;28;20111;-65
2022/07/10 09:09:07;;;;;;;4.25;0.90;;;;;;;22.88;47.42;100261.59;5058121;28;20035;-65
2022/07/10 09:11:38;;;;;;;2.92;0.85;;;;;;;22.92;47.93;100256.03;5075912;28;20035;-65
2022/07/10 09:14:07;;;;;;;2.20;0.55;;;;;;;23.27;47.27;100251.53;5057891;28;20021;-65
2022/07/10 09:16:35;;;;;;;3.40;0.93;;;;;;;23.72;46.20;100254.34;5075279;28;20383;-65
2022/07/10 09:19:21;;;;;;;8.13;1.00;;;;;;;23.43;45.67;100261.09;5057201;28;20036;-65
2022/07/10 09:21:50;;;;;;;4.38;1.02;;;;;;;23.19;46.09;100255.78;5075714;28;20029;-65
2022/07/10 09:24:19;;;;;;;3.13;0.85;;;;;;;23.39;46.53;100262.31;5047703;28;20029;-66
2022/07/10 09:27:08;;;;;;;2.65;0.95;;;;;;;23.78;45.53;100267.28;5056947;28;20068;-66
2022/07/10 09:29:55;;;;;;;5.93;0.90;;;;;;;24.00;45.45;100262.91;5055025;28;20040;-67
2022/07/10 09:32:21;;;;;;;2.03;0.60;;;;;;;23.87;45.59;100256.81;5060632;28;20035;-67
2022/07/10 09:36:04;;;;;;;4.70;0.85;;;;;;;23.85;45.23;100260.44;5037646;28;20040;-66
2022/07/10 09:37:40;;;;;;;2.85;0.70;;;;;;;23.61;46.22;100267.69;5064117;28;20031;-67
2022/07/10 09:40:07;;;;;;;2.72;0.77;;;;;;;23.65;45.76;100247.72;5057367;28;20032;-67
2022/07/10 09:42:36;;;;;;;2.40;0.82;;;;;;;23.39;45.96;100273.03;5056353;28;20093;-67
2022/07/10 09:45:11;;;;;;;2.67;0.60;;;;;;;23.68;44.89;100252.03;5053858;28;20094;-67
2022/07/10 09:47:37;;;;;;;4.22;0.90;;;;;;;23.43;46.13;100261.09;5056666;28;20079;-67
2022/07/10 09:50:03;;;;;;;3.47;0.90;;;;;;;22.81;46.63;100257.66;5037221;28;20025;-67
2022/07/10 09:52:29;;;;;;;4.15;0.90;;;;;;;23.00;46.53;100267.03;5041311;28;20077;-66
2022/07/10 09:54:57;;;;;;;4.28;0.60;;;;;;;23.23;45.93;100268.84;5055204;28;20052;-66
2022/07/10 09:57:27;;;;;;;3.20;0.80;;;;;;;23.59;45.61;100259.78;5030361;28;20495;-66
2022/07/10 09:59:55;;;;;;;2.08;0.70;;;;;;;23.35;45.22;100267.91;5069090;28;20040;-66
2022/07/10 10:02:21;;;;;;;2.15;0.60;;;;;;;23.13;46.40;100262.44;5056814;28;20023;-66
2022/07/10 10:04:49;;;;;;;2.45;0.57;;;;;;;23.07;46.03;100284.38;5076289;28;20017;-66
2022/07/10 10:07:18;;;;;;;3.10;0.85;;;;;;;23.11;45.98;100278.66;5037269;28;20024;-66
2022/07/10 10:09:56;;;;;;;3.63;0.98;;;;;;;22.85;46.62;100280.56;5079943;28;20035;-66
2022/07/10 10:12:37;;;;;;;2.55;0.77;;;;;;;22.93;46.61;100274.66;5059395;28;20032;-66
2022/07/10 10:15:05;;;;;;;2.60;0.63;;;;;;;23.13;45.73;100278.53;5057669;28;20037;-67
2022/07/10 10:17:33;;;;;;;2.35;0.82;;;;;;;23.02;45.01;100292.75;5040433;28;20032;-67
2022/07/10 10:22:46;;;;;;;0.75;0.30;;;;;;;22.36;45.64;100294.88;5047436;28;20078;-67
2022/07/10 10:25:13;;;;;;;1.02;0.40;;;;;;;22.54;44.14;100297.19;5060060;28;20491;-67
2022/07/10 10:27:40;;;;;;;1.33;0.30;;;;;;;22.97;43.38;100294.06;5076086;28;20024;-66
2022/07/10 10:30:16;;;;;;;1.48;0.30;;;;;;;23.24;41.90;100302.69;5059479;28;20040;-66
2022/07/10 10:32:41;;;;;;;2.42;0.60;;;;;;;23.42;42.44;100315.66;5057176;28;20471;-67
2022/07/10 10:35:10;;;;;;;1.85;0.45;;;;;;;23.24;43.08;100291.97;5074307;28;20039;-67
2022/07/10 10:37:44;;;;;;;2.90;0.60;;;;;;;23.14;43.90;100308.84;5045412;28;20020;-67
2022/07/10 10:40:31;;;;;;;1.85;0.45;;;;;;;23.27;43.95;100297.13;5056611;28;20061;-67
2022/07/10 10:42:58;;;;;;;3.28;0.50;;;;;;;23.87;42.77;100289.00;5043950;28;20028;-66
2022/07/10 10:45:25;;;;;;;2.03;0.50;;;;;;;23.81;43.17;100303.72;5050467;28;20033;-66
2022/07/10 10:48:20;;;;;;;2.10;0.57;;;;;;;23.72;42.48;100283.84;5035637;28;20059;-66
2022/07/10 10:50:46;;;;;;;1.15;0.43;;;;;;;23.45;42.84;100291.31;5039329;28;20098;-66
2022/07/10 10:53:21;;;;;;;2.70;0.43;;;;;;;23.61;42.39;100275.75;5046148;28;20118;-66
2022/07/10 10:56:05;;;;;;;2.75;0.45;;;;;;;23.59;42.04;100280.38;5047896;28;20429;-66
2022/07/10 10:58:39;;;;;;;3.50;0.73;;;;;;;23.66;42.04;100281.66;5047132;28;20368;-66
2022/07/10 11:01:25;;;;;;;3.72;0.70;;;;;;;23.31;44.16;100266.44;5053920;28;20037;-67
2022/07/10 11:04:09;;;;;;;5.25;1.30;;;;;;;23.64;44.57;100291.59;5035741;28;20123;-66
2022/07/10 11:06:51;;;;;;;3.55;0.90;;;;;;;23.45;46.07;100270.72;5041569;28;20071;-67
2022/07/10 11:09:31;;;;;;;6.00;1.23;;;;;;;23.68;46.31;100281.53;5043631;28;20361;-66
2022/07/10 11:12:08;;;;;;;4.35;1.00;;;;;;;23.94;45.99;100288.41;5053593;28;20387;-66
2022/07/10 11:14:44;;;;;;;3.92;0.95;;;;;;;23.06;47.12;100306.75;5051187;28;20029;-67
2022/07/10 11:17:10;;;;;;;3.30;0.88;;;;;;;23.63;46.63;100292.59;5057418;28;20534;-67
2022/07/10 11:19:36;;;;;;;6.63;1.17;;;;;;;23.64;47.66;100315.75;5069356;28;20152;-67
2022/07/10 11:22:22;;;;;;;4.50;1.02;;;;;;;23.27;50.22;100305.16;5059807;28;20028;-67
2022/07/10 11:25:13;;;;;;;3.42;1.00;;;;;;;23.60;48.28;100299.03;5046193;28;20060;-67
2022/07/10 11:28:01;;;;;;;3.53;0.75;;;;;;;24.01;49.87;100310.22;5050226;28;20032;-68
2022/07/10 11:30:26;;;;;;;2.80;0.77;;;;;;;23.75;51.09;100299.72;5071231;28;20025;-67
2022/07/10 11:32:52;;;;;;;2.88;0.85;;;;;;;23.22;49.47;100298.41;5060986;28;20039;-66
2022/07/10 11:35:18;;;;;;;6.97;0.90;;;;;;;22.60;51.24;100318.16;5071893;28;20032;-67